createdAt,value
2018-12-27T00:01:26.185Z,101452.44
2018-12-27T00:03:54.086Z,101455.01
2018-12-27T00:06:22.055Z,101444.34
2018-12-27T00:08:49.761Z,101454.69
2018-12-27T00:11:17.392Z,101454.69
2018-12-27T00:13:45.031Z,101452.12
2018-12-27T00:16:12.911Z,101458.15
2018-12-27T00:18:40.877Z,101439.14
2018-12-27T00:21:08.500Z,101448.14
2018-12-27T00:23:36.142Z,101442.42
2018-12-27T00:26:04.086Z,101453.08
2018-12-27T00:28:32.036Z,101441.13
2018-12-27T00:30:59.671Z,101449.42
2018-12-27T00:33:27.567Z,101449.42
2018-12-27T00:35:55.628Z,101442.35
2018-12-27T00:38:23.260Z,101447.61
2018-12-27T00:40:50.883Z,101445.30
2018-12-27T00:43:18.589Z,101445.30
2018-12-27T00:45:46.497Z,101442.35
2018-12-27T00:48:14.462Z,101437.29
2018-12-27T00:50:42.433Z,101445.12
2018-12-27T00:53:10.412Z,101441.77
2018-12-27T00:55:38.371Z,101440.37
2018-12-27T00:58:06.344Z,101423.18
2018-12-27T01:00:33.996Z,101423.37
2018-12-27T01:03:01.975Z,101434.55
2018-12-27T01:05:29.949Z,101436.41
2018-12-27T01:07:57.913Z,101434.72
2018-12-27T01:10:25.900Z,101434.72
2018-12-27T01:12:53.530Z,101439.98
2018-12-27T01:15:21.538Z,101439.87
2018-12-27T01:17:49.488Z,101444.11
2018-12-27T01:20:17.123Z,101436.02
2018-12-27T01:22:45.013Z,101436.02
2018-12-27T01:25:13.288Z,101424.86
2018-12-27T01:27:40.923Z,101435.05
2018-12-27T01:30:08.929Z,101429.66
2018-12-27T01:32:36.569Z,101428.97
2018-12-27T01:35:04.220Z,101430.05
2018-12-27T01:37:31.842Z,101425.31
2018-12-27T01:39:59.484Z,101425.80
2018-12-27T01:42:27.442Z,101433.70
2018-12-27T01:44:55.415Z,101433.52
2018-12-27T01:47:23.381Z,101433.52
2018-12-27T01:49:51.348Z,101418.81
2018-12-27T01:52:19.321Z,101418.81
2018-12-27T01:54:46.953Z,101425.31
2018-12-27T01:57:14.847Z,101423.25
2018-12-27T01:59:42.484Z,101425.70
2018-12-27T02:02:10.108Z,101427.80
2018-12-27T02:04:38.045Z,101427.80
2018-12-27T02:07:05.660Z,101423.56
2018-12-27T02:09:33.565Z,101424.92
2018-12-27T02:12:01.540Z,101428.19
2018-12-27T02:14:29.171Z,101424.86
2018-12-27T02:16:56.792Z,101418.63
2018-12-27T02:19:24.428Z,101416.77
2018-12-27T02:21:52.044Z,101419.69
2018-12-27T02:24:19.671Z,101415.09
2018-12-27T02:26:47.619Z,101413.23
2018-12-27T02:29:15.583Z,101406.30
2018-12-27T02:31:43.209Z,101403.11
2018-12-27T02:34:10.836Z,101393.63
2018-12-27T02:36:38.795Z,101399.84
2018-12-27T02:39:06.746Z,101399.84
2018-12-27T02:41:34.719Z,101395.30
2018-12-27T02:44:02.340Z,101394.91
2018-12-27T02:46:30.244Z,101386.31
2018-12-27T02:48:57.864Z,101386.44
2018-12-27T02:51:25.491Z,101383.05
2018-12-27T02:53:53.116Z,101366.88
2018-12-27T02:56:21.122Z,101378.73
2018-12-27T02:58:49.073Z,101378.73
2018-12-27T03:01:16.704Z,101370.53
2018-12-27T03:03:44.604Z,101362.64
2018-12-27T03:06:12.226Z,101363.23
2018-12-27T03:08:39.854Z,101358.83
2018-12-27T03:11:07.489Z,101344.88
2018-12-27T03:13:35.125Z,101344.88
2018-12-27T03:16:02.758Z,101349.81
2018-12-27T03:18:30.684Z,101354.95
2018-12-27T03:20:58.650Z,101344.41
2018-12-27T03:23:26.617Z,101340.09
2018-12-27T03:25:54.592Z,101344.72
2018-12-27T03:28:22.561Z,101338.53
2018-12-27T03:30:50.528Z,101331.11
2018-12-27T03:33:18.496Z,101333.45
2018-12-27T03:35:46.463Z,101328.92
2018-12-27T03:38:14.084Z,101327.73
2018-12-27T03:40:41.992Z,101318.47
2018-12-27T03:43:09.879Z,101319.56
2018-12-27T03:45:37.522Z,101310.16
2018-12-27T03:48:05.495Z,101310.16
2018-12-27T03:50:33.467Z,101305.61
2018-12-27T03:53:01.089Z,101306.89
2018-12-27T03:55:28.711Z,101306.62
2018-12-27T03:57:56.658Z,101301.27
2018-12-27T04:00:24.286Z,101304.52
2018-12-27T04:02:51.918Z,101300.88
2018-12-27T04:05:19.850Z,101300.48
2018-12-27T04:07:47.819Z,101297.64
2018-12-27T04:10:15.450Z,101297.54
2018-12-27T04:12:43.403Z,101297.87
2018-12-27T04:15:10.998Z,101289.46
2018-12-27T04:17:38.878Z,101288.31
2018-12-27T04:20:06.846Z,101275.34
2018-12-27T04:22:34.841Z,101275.24
2018-12-27T04:25:02.465Z,101290.67
2018-12-27T04:27:30.364Z,101296.49
2018-12-27T04:29:58.334Z,101291.97
2018-12-27T04:32:26.313Z,101282.30
2018-12-27T04:34:54.253Z,101281.95
2018-12-27T04:37:21.881Z,101286.30
2018-12-27T04:39:49.783Z,101280.55
2018-12-27T04:42:17.753Z,101272.09
2018-12-27T04:44:45.727Z,101262.19
2018-12-27T04:47:13.703Z,101262.19
2018-12-27T04:49:41.665Z,101263.28
2018-12-27T04:52:09.631Z,101269.80
2018-12-27T04:54:37.599Z,101264.19
2018-12-27T04:57:05.574Z,101267.03
2018-12-27T04:59:33.545Z,101274.73
2018-12-27T05:02:01.514Z,101271.50
2018-12-27T05:04:29.483Z,101271.48
2018-12-27T05:06:57.448Z,101272.32
2018-12-27T05:09:25.454Z,101269.75
2018-12-27T05:11:53.048Z,101275.53
2018-12-27T05:14:20.677Z,101271.69
2018-12-27T05:16:48.610Z,101276.81
2018-12-27T05:19:16.580Z,101278.52
2018-12-27T05:21:44.208Z,101278.52
2018-12-27T05:24:12.113Z,101278.45
2018-12-27T05:26:39.818Z,101278.45
2018-12-27T05:29:07.432Z,101272.70
2018-12-27T05:31:35.055Z,101268.94
2018-12-27T05:34:02.969Z,101275.19
2018-12-27T05:36:30.600Z,101277.83
2018-12-27T05:38:58.496Z,101283.47
2018-12-27T05:41:26.467Z,101281.88
2018-12-27T05:43:54.432Z,101281.28
2018-12-27T05:46:22.408Z,101275.38
2018-12-27T05:48:50.059Z,101268.84
2018-12-27T05:51:17.931Z,101278.14
2018-12-27T05:53:45.908Z,101280.20
2018-12-27T05:56:13.872Z,101279.04
2018-12-27T05:58:41.502Z,101274.97
2018-12-27T06:01:09.131Z,101276.66
2018-12-27T06:03:37.079Z,101275.86
2018-12-27T06:06:05.052Z,101284.66
2018-12-27T06:08:32.675Z,101280.79
2018-12-27T06:11:00.565Z,101284.56
2018-12-27T06:13:28.540Z,101287.72
2018-12-27T06:15:56.172Z,101293.63
2018-12-27T06:18:23.850Z,101297.17
2018-12-27T06:20:51.421Z,101295.80
2018-12-27T06:23:19.060Z,101292.45
2018-12-27T06:25:46.954Z,101302.52
2018-12-27T06:28:14.919Z,101291.77
2018-12-27T06:30:42.889Z,101291.58
2018-12-27T06:33:10.858Z,101289.98
2018-12-27T06:35:38.827Z,101281.89
2018-12-27T06:38:06.537Z,101280.59
2018-12-27T06:40:34.458Z,101277.92
2018-12-27T06:43:02.099Z,101287.43
2018-12-27T06:45:29.996Z,101278.42
2018-12-27T06:47:57.630Z,101280.50
2018-12-27T06:50:25.523Z,101275.08
2018-12-27T06:52:53.496Z,101272.79
2018-12-27T06:55:21.456Z,101268.16
2018-12-27T06:57:49.427Z,101260.64
2018-12-27T07:00:17.048Z,101263.49
2018-12-27T07:02:44.957Z,101266.69
2018-12-27T07:05:12.581Z,101265.84
2018-12-27T07:07:40.488Z,101273.86
2018-12-27T07:10:08.482Z,101271.27
2018-12-27T07:12:36.502Z,101270.87
2018-12-27T07:15:04.396Z,101274.20
2018-12-27T07:17:32.363Z,101271.63
2018-12-27T07:19:59.995Z,101272.32
2018-12-27T07:22:27.630Z,101274.39
2018-12-27T07:24:55.558Z,101272.47
2018-12-27T07:27:23.529Z,101275.81
2018-12-27T07:29:51.157Z,101275.23
2018-12-27T07:32:18.790Z,101276.23
2018-12-27T07:34:46.413Z,101276.63
2018-12-27T07:37:14.386Z,101274.53
2018-12-27T07:39:42.012Z,101277.70
2018-12-27T07:42:09.640Z,101280.48
2018-12-27T07:44:37.576Z,101277.80
2018-12-27T07:47:05.778Z,101282.54
2018-12-27T07:49:33.724Z,101274.92
2018-12-27T07:52:01.706Z,101276.91
2018-12-27T07:54:29.333Z,101276.63
2018-12-27T07:56:57.217Z,101271.50
2018-12-27T07:59:24.840Z,101267.72
2018-12-27T08:01:52.476Z,101265.38
2018-12-27T08:04:20.409Z,101268.52
2018-12-27T08:06:48.376Z,101267.47
2018-12-27T08:09:16.017Z,101264.03
2018-12-27T08:11:43.647Z,101266.19
2018-12-27T08:14:11.573Z,101268.73
2018-12-27T08:16:39.203Z,101261.42
2018-12-27T08:19:06.835Z,101264.40
2018-12-27T08:21:34.762Z,101263.40
2018-12-27T08:24:02.734Z,101266.58
2018-12-27T08:26:30.365Z,101264.77
2018-12-27T08:28:58.261Z,101265.87
2018-12-27T08:31:26.231Z,101258.45
2018-12-27T08:33:54.202Z,101261.32
2018-12-27T08:36:22.179Z,101249.16
2018-12-27T08:38:50.143Z,101251.05
2018-12-27T08:41:17.764Z,101252.72
2018-12-27T08:43:45.676Z,101245.81
2018-12-27T08:46:13.302Z,101247.33
2018-12-27T08:48:41.304Z,101251.11
2018-12-27T08:51:08.927Z,101251.39
2018-12-27T08:53:36.835Z,101250.18
2018-12-27T08:56:04.466Z,101252.54
2018-12-27T08:58:32.366Z,101259.36
2018-12-27T09:01:00.333Z,101258.28
2018-12-27T09:03:27.967Z,101260.42
2018-12-27T09:05:55.592Z,101259.75
2018-12-27T09:08:23.546Z,101260.03
2018-12-27T09:10:51.493Z,101261.78
2018-12-27T09:13:19.463Z,101261.42
2018-12-27T09:15:47.159Z,101256.36
2018-12-27T09:18:15.099Z,101255.67
2018-12-27T09:20:43.064Z,101256.27
2018-12-27T09:23:10.777Z,101257.34
2018-12-27T09:25:38.697Z,101260.80
2018-12-27T09:28:06.363Z,101257.96
2018-12-27T09:30:33.981Z,101267.23
2018-12-27T09:33:01.887Z,101267.52
2018-12-27T09:35:29.502Z,101262.87
2018-12-27T09:37:57.419Z,101264.78
2018-12-27T09:40:25.030Z,101262.23
2018-12-27T09:42:52.945Z,101259.72
2018-12-27T09:45:20.915Z,101262.01
2018-12-27T09:47:48.881Z,101258.44
2018-12-27T09:50:16.852Z,101257.65
2018-12-27T09:52:44.469Z,101256.63
2018-12-27T09:55:12.382Z,101253.50
2018-12-27T09:57:40.006Z,101249.25
2018-12-27T10:00:07.922Z,101247.69
2018-12-27T10:02:35.888Z,101246.15
2018-12-27T10:05:03.849Z,101246.94
2018-12-27T10:07:31.723Z,101246.91
2018-12-27T10:09:59.354Z,101240.41
2018-12-27T10:12:27.250Z,101242.48
2018-12-27T10:14:55.220Z,101234.14
2018-12-27T10:17:23.187Z,101229.81
2018-12-27T10:19:51.166Z,101235.52
2018-12-27T10:22:19.125Z,101231.80
2018-12-27T10:24:47.098Z,101231.00
2018-12-27T10:27:15.084Z,101231.00
2018-12-27T10:29:43.038Z,101230.27
2018-12-27T10:32:10.906Z,101225.88
2018-12-27T10:34:38.874Z,101228.55
2018-12-27T10:37:06.501Z,101226.94
2018-12-27T10:39:34.404Z,101222.94
2018-12-27T10:42:02.393Z,101217.19
2018-12-27T10:44:30.651Z,101215.48
2018-12-27T10:46:58.534Z,101206.94
2018-12-27T10:49:26.486Z,101207.97
2018-12-27T10:51:54.458Z,101202.72
2018-12-27T10:54:22.078Z,101199.23
2018-12-27T10:56:50.005Z,101200.92
2018-12-27T10:59:18.058Z,101201.95
2018-12-27T11:01:45.675Z,101193.88
2018-12-27T11:04:13.377Z,101192.09
2018-12-27T11:06:41.276Z,101187.23
2018-12-27T11:09:08.975Z,101172.59
2018-12-27T11:11:36.884Z,101170.66
2018-12-27T11:14:04.883Z,101170.67
2018-12-27T11:16:32.490Z,101168.56
2018-12-27T11:19:00.379Z,101162.13
2018-12-27T11:21:28.350Z,101158.39
2018-12-27T11:23:55.979Z,101152.46
2018-12-27T11:26:23.607Z,101148.17
2018-12-27T11:28:51.232Z,101145.75
2018-12-27T11:31:19.211Z,101149.46
2018-12-27T11:33:46.831Z,101136.39
2018-12-27T11:36:17.400Z,101135.94
2018-12-27T11:38:44.346Z,101145.75
2018-12-27T11:41:12.314Z,101145.41
2018-12-27T11:43:39.940Z,101141.70
2018-12-27T11:46:07.846Z,101136.04
2018-12-27T11:48:35.479Z,101136.19
2018-12-27T11:51:03.370Z,101140.55
2018-12-27T11:53:31.237Z,101131.30
2018-12-27T11:55:58.862Z,101129.61
2018-12-27T11:58:26.765Z,101129.36
2018-12-27T12:00:54.390Z,101130.59
2018-12-27T12:03:22.027Z,101128.66
2018-12-27T12:05:49.965Z,101125.50
2018-12-27T12:08:18.007Z,101123.31
2018-12-27T12:10:45.690Z,101123.02
2018-12-27T12:13:13.567Z,101124.64
2018-12-27T12:15:41.529Z,101121.42
2018-12-27T12:18:09.503Z,101116.58
2018-12-27T12:20:37.469Z,101126.79
2018-12-27T12:23:05.441Z,101115.84
2018-12-27T12:25:33.417Z,101121.23
2018-12-27T12:28:01.382Z,101125.84
2018-12-27T12:30:29.354Z,101122.38
2018-12-27T12:32:57.219Z,101120.90
2018-12-27T12:35:25.234Z,101116.77
2018-12-27T12:37:52.806Z,101114.00
2018-12-27T12:40:20.721Z,101109.64
2018-12-27T12:42:48.687Z,101116.39
2018-12-27T12:45:16.660Z,101111.48
2018-12-27T12:47:44.273Z,101106.91
2018-12-27T12:50:11.910Z,101110.53
2018-12-27T12:52:39.867Z,101109.95
2018-12-27T12:55:07.818Z,101110.93
2018-12-27T12:57:35.689Z,101112.22
2018-12-27T13:00:03.669Z,101110.16
2018-12-27T13:02:31.627Z,101106.72
2018-12-27T13:04:59.593Z,101108.20
2018-12-27T13:07:27.585Z,101109.64
2018-12-27T13:09:55.207Z,101107.29
2018-12-27T13:12:22.832Z,101113.08
2018-12-27T13:14:50.456Z,101107.34
2018-12-27T13:17:18.418Z,101106.05
2018-12-27T13:19:46.386Z,101103.30
2018-12-27T13:22:14.007Z,101106.66
2018-12-27T13:24:41.918Z,101103.28
2018-12-27T13:27:09.888Z,101097.96
2018-12-27T13:29:37.511Z,101099.91
2018-12-27T13:32:05.418Z,101097.91
2018-12-27T13:34:33.387Z,101095.97
2018-12-27T13:37:01.355Z,101096.40
2018-12-27T13:39:29.327Z,101099.36
2018-12-27T13:41:56.956Z,101100.62
2018-12-27T13:44:24.869Z,101097.54
2018-12-27T13:46:52.481Z,101095.83
2018-12-27T13:49:20.423Z,101097.44
2018-12-27T13:51:48.360Z,101094.40
2018-12-27T13:54:16.330Z,101097.28
2018-12-27T13:56:43.955Z,101098.73
2018-12-27T13:59:11.580Z,101094.94
2018-12-27T14:01:39.522Z,101093.74
2018-12-27T14:04:07.487Z,101088.41
2018-12-27T14:06:35.458Z,101092.56
2018-12-27T14:09:04.775Z,101089.80
2018-12-27T14:11:32.725Z,101093.89
2018-12-27T14:14:00.347Z,101092.67
2018-12-27T14:16:28.258Z,101089.53
2018-12-27T14:18:57.043Z,101082.61
2018-12-27T14:21:25.015Z,101086.96
2018-12-27T14:23:52.981Z,101088.04
2018-12-27T14:26:20.977Z,101082.07
2018-12-27T14:28:48.931Z,101086.16
2018-12-27T14:31:16.896Z,101087.34
2018-12-27T14:33:44.885Z,101095.23
2018-12-27T14:36:12.835Z,101092.94
2018-12-27T14:38:40.457Z,101087.41
2018-12-27T14:41:08.080Z,101092.05
2018-12-27T14:43:36.029Z,101085.28
2018-12-27T14:46:03.995Z,101088.97
2018-12-27T14:48:31.614Z,101089.64
2018-12-27T14:50:59.522Z,101090.14
2018-12-27T14:53:27.144Z,101084.95
2018-12-27T14:55:55.058Z,101091.31
2018-12-27T14:58:22.925Z,101090.03
2018-12-27T15:00:50.549Z,101095.81
2018-12-27T15:03:18.450Z,101093.47
2018-12-27T15:05:46.417Z,101100.06
2018-12-27T15:08:14.392Z,101093.53
2018-12-27T15:10:42.358Z,101092.58
2018-12-27T15:13:10.230Z,101092.33
2018-12-27T15:15:37.852Z,101096.17
2018-12-27T15:18:05.761Z,101095.14
2018-12-27T15:20:33.725Z,101097.17
2018-12-27T15:23:01.699Z,101096.56
2018-12-27T15:25:29.317Z,101094.88
2018-12-27T15:27:56.933Z,101096.77
2018-12-27T15:30:24.902Z,101098.66
2018-12-27T15:32:52.852Z,101095.63
2018-12-27T15:35:20.827Z,101098.05
2018-12-27T15:37:48.799Z,101103.52
2018-12-27T15:40:16.782Z,101104.59
2018-12-27T15:42:44.739Z,101107.79
2018-12-27T15:45:12.355Z,101105.09
2018-12-27T15:47:40.268Z,101114.36
2018-12-27T15:50:08.238Z,101117.00
2018-12-27T15:52:36.205Z,101108.05
2018-12-27T15:55:04.087Z,101113.36
2018-12-27T15:57:32.040Z,101114.58
2018-12-27T15:59:59.906Z,101109.69
2018-12-27T16:02:27.895Z,101113.47
2018-12-27T16:04:55.509Z,101110.30
2018-12-27T16:07:23.407Z,101106.66
2018-12-27T16:09:51.378Z,101107.87
2018-12-27T16:12:19.349Z,101109.94
2018-12-27T16:14:46.968Z,101115.36
2018-12-27T16:17:14.598Z,101108.19
2018-12-27T16:19:42.239Z,101107.66
2018-12-27T16:22:09.834Z,101104.33
2018-12-27T16:24:37.759Z,101102.80
2018-12-27T16:27:05.731Z,101105.88
2018-12-27T16:29:33.347Z,101103.41
2018-12-27T16:32:01.264Z,101105.98
2018-12-27T16:34:28.881Z,101108.05
2018-12-27T16:36:56.815Z,101100.45
2018-12-27T16:39:24.758Z,101100.84
2018-12-27T16:41:52.389Z,101106.23
2018-12-27T16:44:20.292Z,101106.23
2018-12-27T16:46:48.257Z,101106.02
2018-12-27T16:49:16.149Z,101099.60
2018-12-27T16:51:43.770Z,101101.20
2018-12-27T16:54:11.656Z,101103.73
2018-12-27T16:56:39.641Z,101109.02
2018-12-27T16:59:07.271Z,101103.88
2018-12-27T17:01:34.886Z,101109.61
2018-12-27T17:04:02.837Z,101104.41
2018-12-27T17:06:30.459Z,101103.98
2018-12-27T17:08:58.074Z,101106.44
2018-12-27T17:11:25.705Z,101105.28
2018-12-27T17:13:53.572Z,101100.75
2018-12-27T17:16:21.195Z,101107.44
2018-12-27T17:18:49.104Z,101098.27
2018-12-27T17:21:16.729Z,101105.77
2018-12-27T17:23:44.629Z,101104.48
2018-12-27T17:26:12.602Z,101104.28
2018-12-27T17:28:40.468Z,101104.78
2018-12-27T17:31:08.434Z,101106.44
2018-12-27T17:33:36.133Z,101106.06
2018-12-27T17:36:03.968Z,101113.25
2018-12-27T17:38:31.935Z,101114.64
2018-12-27T17:40:59.912Z,101118.49
2018-12-27T17:43:27.535Z,101114.07
2018-12-27T17:45:55.437Z,101123.20
2018-12-27T17:48:23.411Z,101116.78
2018-12-27T17:50:51.394Z,101113.61
2018-12-27T17:53:19.025Z,101114.83
2018-12-27T17:55:46.735Z,101115.22
2018-12-27T17:58:14.670Z,101114.04
2018-12-27T18:00:42.291Z,101113.54
2018-12-27T18:03:10.198Z,101118.07
2018-12-27T18:05:38.168Z,101111.16
2018-12-27T18:08:05.795Z,101115.14
2018-12-27T18:10:33.411Z,101112.18
2018-12-27T18:13:01.363Z,101110.47
2018-12-27T18:15:29.333Z,101105.66
2018-12-27T18:17:57.307Z,101106.55
2018-12-27T18:20:25.269Z,101112.44
2018-12-27T18:22:53.240Z,101110.16
2018-12-27T18:25:20.854Z,101110.00
2018-12-27T18:27:48.769Z,101109.40
2018-12-27T18:30:16.754Z,101105.26
2018-12-27T18:32:44.377Z,101101.02
2018-12-27T18:35:11.992Z,101099.73
2018-12-27T18:37:39.930Z,101104.66
2018-12-27T18:40:07.902Z,101101.23
2018-12-27T18:42:35.537Z,101104.73
2018-12-27T18:45:03.427Z,101103.59
2018-12-27T18:47:31.396Z,101100.20
2018-12-27T18:49:59.264Z,101104.05
2018-12-27T18:52:27.233Z,101103.95
2018-12-27T18:54:54.845Z,101101.59
2018-12-27T18:57:22.467Z,101112.64
2018-12-27T18:59:50.449Z,101110.00
2018-12-27T19:02:18.394Z,101111.89
2018-12-27T19:04:46.262Z,101112.57
2018-12-27T19:07:14.149Z,101114.75
2018-12-27T19:09:42.097Z,101111.79
2018-12-27T19:12:10.070Z,101118.57
2018-12-27T19:14:38.037Z,101110.55
2018-12-27T19:17:05.726Z,101101.02
2018-12-27T19:19:33.674Z,101098.95
2018-12-27T19:22:01.647Z,101091.34
2018-12-27T19:24:29.612Z,101092.06
2018-12-27T19:26:57.477Z,101101.62
2018-12-27T19:29:25.126Z,101098.97
2018-12-27T19:31:53.007Z,101096.30
2018-12-27T19:34:20.978Z,101099.75
2018-12-27T19:36:48.846Z,101096.30
2018-12-27T19:39:16.814Z,101094.80
2018-12-27T19:41:44.425Z,101093.36
2018-12-27T19:44:12.343Z,101101.03
2018-12-27T19:46:39.953Z,101099.86
2018-12-27T19:49:07.569Z,101102.64
2018-12-27T19:51:35.534Z,101099.28
2018-12-27T19:54:03.166Z,101097.91
2018-12-27T19:56:30.788Z,101099.47
2018-12-27T19:58:58.726Z,101101.94
2018-12-27T20:01:26.597Z,101106.20
2018-12-27T20:03:54.567Z,101103.16
2018-12-27T20:06:22.178Z,101099.38
2018-12-27T20:08:49.799Z,101102.84
2018-12-27T20:11:17.420Z,101095.46
2018-12-27T20:13:45.313Z,101091.61
2018-12-27T20:16:13.289Z,101098.10
2018-12-27T20:18:40.911Z,101101.37
2018-12-27T20:21:08.528Z,101097.25
2018-12-27T20:23:36.494Z,101096.35
2018-12-27T20:26:04.104Z,101098.30
2018-12-27T20:28:32.747Z,101098.10
2018-12-27T20:31:00.710Z,101094.77
2018-12-27T20:33:28.662Z,101100.78
2018-12-27T20:35:56.540Z,101098.22
2018-12-27T20:38:24.160Z,101096.95
2018-12-27T20:40:51.775Z,101088.75
2018-12-27T20:43:19.473Z,101092.52
2018-12-27T20:45:47.386Z,101089.34
2018-12-27T20:48:15.354Z,101092.00
2018-12-27T20:50:42.972Z,101094.18
2018-12-27T20:53:10.906Z,101091.41
2018-12-27T20:55:38.855Z,101086.65
2018-12-27T20:58:06.842Z,101084.28
2018-12-27T21:00:34.794Z,101078.47
2018-12-27T21:03:02.784Z,101086.39
2018-12-27T21:05:30.735Z,101084.42
2018-12-27T21:07:58.727Z,101081.26
2018-12-27T21:10:26.678Z,101080.37
2018-12-27T21:12:54.642Z,101077.41
2018-12-27T21:15:22.264Z,101077.28
2018-12-27T21:17:49.897Z,101072.02
2018-12-27T21:20:17.531Z,101075.11
2018-12-27T21:22:45.221Z,101075.59
2018-12-27T21:25:13.366Z,101072.70
2018-12-27T21:27:41.357Z,101072.55
2018-12-27T21:30:08.971Z,101069.98
2018-12-27T21:32:36.578Z,101071.45
2018-12-27T21:35:04.528Z,101072.13
2018-12-27T21:37:32.599Z,101076.08
2018-12-27T21:40:00.286Z,101073.49
2018-12-27T21:42:28.291Z,101082.95
2018-12-27T21:44:56.199Z,101085.04
2018-12-27T21:47:23.810Z,101078.27
2018-12-27T21:49:51.507Z,101073.31
2018-12-27T21:52:19.393Z,101069.38
2018-12-27T21:54:47.366Z,101073.91
2018-12-27T21:57:15.331Z,101069.67
2018-12-27T21:59:43.306Z,101071.09
2018-12-27T22:02:11.276Z,101071.69
2018-12-27T22:04:39.241Z,101058.54
2018-12-27T22:07:06.927Z,101056.98
2018-12-27T22:09:34.547Z,101060.69
2018-12-27T22:12:02.170Z,101060.69
2018-12-27T22:14:30.094Z,101069.06
2018-12-27T22:16:57.714Z,101068.47
2018-12-27T22:19:25.344Z,101065.59
2018-12-27T22:21:53.290Z,101072.11
2018-12-27T22:24:21.256Z,101064.09
2018-12-27T22:26:49.226Z,101070.05
2018-12-27T22:29:17.098Z,101073.36
2018-12-27T22:31:44.725Z,101074.67
2018-12-27T22:34:12.624Z,101080.98
2018-12-27T22:36:40.594Z,101074.64
2018-12-27T22:39:08.563Z,101063.63
2018-12-27T22:41:36.535Z,101063.63
2018-12-27T22:44:04.508Z,101066.19
2018-12-27T22:46:32.471Z,101062.80
2018-12-27T22:49:00.339Z,101060.73
2018-12-27T22:51:28.310Z,101067.66
2018-12-27T22:53:56.304Z,101061.73
2018-12-27T22:56:24.250Z,101057.56
2018-12-27T22:58:52.218Z,101056.10
2018-12-27T23:01:20.186Z,101045.45
2018-12-27T23:03:47.801Z,101048.91
2018-12-27T23:06:15.716Z,101048.52
2018-12-27T23:08:43.598Z,101047.80
2018-12-27T23:11:11.553Z,101047.80
2018-12-27T23:13:39.182Z,101045.05
2018-12-27T23:16:07.083Z,101046.41
2018-12-27T23:18:35.059Z,101035.58
2018-12-27T23:21:03.025Z,101042.48
2018-12-27T23:23:30.639Z,101042.98
2018-12-27T23:25:58.566Z,101034.58
2018-12-27T23:28:26.522Z,101036.47
2018-12-27T23:30:54.496Z,101042.59
2018-12-27T23:33:22.165Z,101040.42
2018-12-27T23:35:49.733Z,101044.16
2018-12-27T23:38:17.683Z,101040.89
2018-12-27T23:40:45.656Z,101038.14
2018-12-27T23:43:13.542Z,101037.36
2018-12-27T23:45:41.167Z,101040.49
2018-12-27T23:48:09.049Z,101037.75
2018-12-27T23:50:37.017Z,101043.48
2018-12-27T23:53:04.637Z,101032.50
2018-12-27T23:55:32.552Z,101026.98
2018-12-27T23:58:00.414Z,101028.08
